Kezdőlap
Műholdfelvételek 10-napos időjárásÉghajlatTengeri időjárás Ciklonok Villám RepülőterekGYIK Hírlevél az Allmetsatról
Időjárás : Európa Afrika Észak-Amerika Dél-Amerika Ázsia Ausztrália-Óceánia Más
Nyelvek Kapcsolatfelvétel

Budapest, Magyarország

Budapest Liszt Ferenc nemzetközi repülőtér

földrajzi szélesség: 47-26N, földrajzi hosszúság: 019-16E, magasság: 151 m


METAR: LHBP 281730Z 35006KT CAVOK 15/04 Q1016 NOSIG
TAF: LHBP 281700Z 2818/2918 VRB03KT CAVOK TEMPO 2910/2916 SCT045

Idő: 19:52 (17:52 UTC)

Jelenlegi meteorológiai megfigyelések

A jelentés 22 perccel ezelõtt készült, 17:30 UTC
Északi szél 6 kt
Hőmérséklet 15°C
Páratartalom 48%
Légköri nyomás 1016 hPa
Látótávolság 10 km, vagy több
felhőtlen 1500 m magasságban, és nincs gomolyfelhõ

Mértékegység megváltoztatása

Előrejelzés

A jelentés 52 perccel ezelõtt készült, 17:00 UTC
Az előrejelzés 28-én 18 óra UTC és 29-én 18 óra UTC között érvényes
Különbözõ irányokból fújó szél 3 kt
Látótávolság 10 km, vagy több
felhőtlen 1500 m magasságban, és nincs gomolyfelhõ
29-én 10 óra UTC és 29-én 16 óra UTC között ideiglenes
Szórványos felhőzet 4500 lábon
Az ezen az oldalon található információkra felelősségi nyilatkozat vonatkozik
Időjárás : Európa Afrika Észak-Amerika Dél-Amerika Ázsia Ausztrália-Óceánia Más
Műholdfelvételek 10-napos időjárásÉghajlatTengeri időjárás Ciklonok Villám RepülőterekGYIK Nyelvek Kapcsolatfelvétel Hírlevél az Allmetsatról